Terminal Aerodrome Forecast
Issued by NWS

Home | Current Version | Previous Version | Text Only | Print | Product List | Glossary On
Versions: 1 2 3 4 5 6 7 8 9 10 11 12 13 14 15 16
000
FTUS44 KJAN 292323
TAFGTR
TAF
KGTR 292323Z 3000/3024 15020G35KT P6SM SCT050 BKN250
     FM300600 16017G28KT P6SM BKN015
     FM301500 16018G30KT P6SM VCTS BKN025CB
     FM301800 16019G35KT 4SM TSRA BR BKN025CB OVC050=

USA.gov is the U.S. government's official web portal to all federal, state and local government web resources and services.